WetterOnline ( https://www.wetteronline.de )

Wetter aktuell Schleswig

Aktuelles Wetter: Schleswig (48m)

6-stündlich | Neueste Meldungen
Ortszeit Temperatur Wetter
Sa, 12.06. 14:00 16.5° C bedeckt
Sa, 12.06. 8:00 16.0° C bewölkt
Sa, 12.06. 2:00 16.0° C bedeckt
Fr, 11.06. 20:00 18.8° C bedeckt
Fr, 11.06. 14:00 21.9° C bedeckt
Fr, 11.06. 8:00 17.5° C wolkenlos
Fr, 11.06. 2:00 13.3° C leicht bewölkt
Do, 10.06. 20:00 21.0° C leicht bewölkt
Ortszeit Temperatur Wetter
Sa, 12.06. 18:30 16.4° C wolkig
Sa, 12.06. 18:20 16.4° C wolkig
Sa, 12.06. 18:10 17.0° C wolkig
Sa, 12.06. 18:00 16.4° C wolkig
Sa, 12.06. 17:50 16.4° C wolkig
Sa, 12.06. 17:40 16.2° C bewölkt
Sa, 12.06. 17:30 17.7° C bewölkt
Sa, 12.06. 17:00 16.7° C bedeckt
Ortszeit Relative Feuchte Sichtweite
Sa, 12.06. 14:00 83% 30 km
Sa, 12.06. 8:00 84% 24 km
Sa, 12.06. 2:00 87% 15 km
Fr, 11.06. 20:00 79% 24 km
Fr, 11.06. 14:00 63% 55 km
Fr, 11.06. 8:00 78% 13 km
Fr, 11.06. 2:00 92% 12 km
Do, 10.06. 20:00 58% 40 km
Ortszeit Relative Feuchte Sichtweite
Sa, 12.06. 18:30 54% 45 km
Sa, 12.06. 18:20 54% -
Sa, 12.06. 18:10 55% -
Sa, 12.06. 18:00 57% 50 km
Sa, 12.06. 17:50 57% -
Sa, 12.06. 17:40 57% -
Sa, 12.06. 17:30 58% 50 km
Sa, 12.06. 17:00 60% 50 km
Ortszeit Niederschlagsmenge Niederschlagsart
Sa, 12.06. 14:00 1 l/m2 in 6 Std. Regen
Sa, 12.06. 8:00 0.0 l/m2 in 12 Std. -
Sa, 12.06. 2:00 0.0 l/m2 in 6 Std. -
Fr, 11.06. 20:00 0.0 l/m2 in 12 Std. -
Fr, 11.06. 14:00 0.0 l/m2 in 6 Std. -
Fr, 11.06. 8:00 0.0 l/m2 in 12 Std. -
Fr, 11.06. 2:00 0.0 l/m2 in 6 Std. -
Do, 10.06. 20:00 0.0 l/m2 in 12 Std. -
Ortszeit Niederschlagsmenge Niederschlagsart
Sa, 12.06. 18:30 0.0 l/m2 in 1 Std. -
Sa, 12.06. 18:20 keine Meldung -
Sa, 12.06. 18:10 keine Meldung -
Sa, 12.06. 18:00 0.0 l/m2 in 1 Std. -
Sa, 12.06. 17:50 keine Meldung -
Sa, 12.06. 17:40 keine Meldung -
Sa, 12.06. 17:30 0.0 l/m2 in 1 Std. -
Sa, 12.06. 17:00 0.0 l/m2 in 1 Std. Regen
Ortszeit Stärke Spitze Richtung
km/h Bft. km/h Grad Sektor
Sa, 12.06. 14:00 20 4 43 280° W
Sa, 12.06. 8:00 11 2 33 270° W
Sa, 12.06. 2:00 11 2 36 260° W
Fr, 11.06. 20:00 19 3 35 270° W
Fr, 11.06. 14:00 11 2 29 240° SW
Fr, 11.06. 8:00 9 2 19 250° W
Fr, 11.06. 2:00 4 1 18 200° S
Do, 10.06. 20:00 9 2 30 270° W
Ortszeit Stärke Spitze Richtung
km/h Bft. km/h Grad Sektor
Sa, 12.06. 18:30 25 4 43 300° NW
Sa, 12.06. 18:20 25 4 - 300° NW
Sa, 12.06. 18:10 22 4 - 310° NW
Sa, 12.06. 18:00 20 4 39 300° NW
Sa, 12.06. 17:50 20 4 - 300° NW
Sa, 12.06. 17:40 22 4 - 320° NW
Sa, 12.06. 17:30 19 3 39 290° W
Sa, 12.06. 17:00 22 4 44 310° NW
Ortszeit Untergrenze Bedeckung Gattung
total tief tief mittel hoch
Sa, 12.06. 14:00 480 m 8/8 8/8 - - -
Sa, 12.06. 8:00 420 m 8/8 7/8 - - -
Sa, 12.06. 2:00 270 m 8/8 8/8 - - -
Fr, 11.06. 20:00 480 m 8/8 8/8 - - -
Fr, 11.06. 14:00 870 m 8/8 8/8 - - -
Fr, 11.06. 8:00 - 0/8 0/8 - - -
Fr, 11.06. 2:00 9000 m 5/8 0/8 - - -
Do, 10.06. 20:00 7800 m 5/8 0/8 - - -
Ortszeit Bedeckungsgrad in Achtel und Wolkenuntergrenze
Sa, 12.06. 18:30 4(1110m) 6(1470m) 6(1500m)
Sa, 12.06. 18:20 4(1110m) 6(1470m) 6(1500m)
Sa, 12.06. 18:10 4(1110m) 6(1470m) 6(1500m)
Sa, 12.06. 18:00 4(1080m) 6(1500m)
Sa, 12.06. 17:50 4(1080m) 6(1500m)
Sa, 12.06. 17:40 5(1050m) 6(1380m) 7(1800m)
Sa, 12.06. 17:30 2(990m) 3(1230m) 7(1500m)
Sa, 12.06. 17:00 2(870m) 6(1500m) 8(1800m)
Ortszeit Luftdruck NN (hPa) Tendenz (hPa in 3 Std.)
Sa, 12.06. 14:00 1015 + 0,8
Sa, 12.06. 8:00 1014 - 0,4
Sa, 12.06. 2:00 1015 - 0,5
Fr, 11.06. 20:00 1017 0,0
Fr, 11.06. 14:00 1017 - 0,5
Fr, 11.06. 8:00 1018 - 0,3
Fr, 11.06. 2:00 1019 - 0,6
Do, 10.06. 20:00 1019 - 0,8
Ortszeit Luftdruck NN (hPa) Tendenz (hPa in 3 Std.)
Sa, 12.06. 18:30 1017 + 1,9
Sa, 12.06. 18:20 1017 keine Meldung
Sa, 12.06. 18:10 1017 keine Meldung
Sa, 12.06. 18:00 1017 + 1,6
Sa, 12.06. 17:50 1017 keine Meldung
Sa, 12.06. 17:40 1017 keine Meldung
Sa, 12.06. 17:30 1017 + 1,7
Sa, 12.06. 17:00 1016 + 1,4
Ortszeit Schneehöhe (cm)
Sa, 12.06. 14:00 -
Sa, 12.06. 8:00 -
Sa, 12.06. 2:00 -
Fr, 11.06. 20:00 -
Fr, 11.06. 14:00 -
Fr, 11.06. 8:00 -
Fr, 11.06. 2:00 -
Do, 10.06. 20:00 -
Ortszeit Schneehöhe (cm)
Sa, 12.06. 18:30 -
Sa, 12.06. 18:20 -
Sa, 12.06. 18:10 -
Sa, 12.06. 18:00 -
Sa, 12.06. 17:50 -
Sa, 12.06. 17:40 -
Sa, 12.06. 17:30 -
Sa, 12.06. 17:00 -
Link zu dieser Seite / Seite empfehlen

Das Wetter in ...